首页
METAR-TAF:

METAR-TAF

机场 :

迪奥里·哈马尼国际机场

尼亞美, 尼日尔

纬度: 13-29N, 经度: 002-10E, 海拔: 223米

当前天气观测

该预报发布于23分钟前的13:00 UTC
风速11节,风向南转西南
温度 34°C
湿度 44%
气压 1012 hPa
能见度10公里或以上
多云层高于2600英尺

METAR: DRRN 171300Z 20011KT 9999 BKN026 34/20 Q1012 TEMPO 4000 TSSHRA FEW030CB

时间: 14:23 (13:23 UTC)

预报

该预报发布于2小时和23分钟前的11:00 UTC
预报有效从17日的 12点(UTC)到 18日的 18点(UTC)
风速10节,风向西转西南
能見度: 8000
散云层高于3000英尺
几率 40% :
短暂存在
从 17日的 15点(UTC)到 17日的 19点(UTC)
能見度: 4000
多云层高于3000英尺
少量云层高于4000英尺, 积雨云.
几率 30% :
短暂存在
从 17日的 22点(UTC)到 18日的 02点(UTC)
风速25节,风向,有时为35节阵风
能見度: 2000
多云层高于3000英尺
散云层高于4000英尺, 积雨云.
飑, 高吹尘

TAF: DRRN 171100Z 1712/1818 24010KT 8000 SCT030 PROB40 TEMPO 1715/1719 4000 TSSHRA BKN030 FEW040CB PROB30 TEMPO 1722/1802 08025G35KT 2000 SQ BLDU BKN030 SCT040CB

超过4000个机场的气象观测和天气预报(METAR&TAF报告)。

可查询的气象台以黄色和红色小点在地图上表示。

将鼠标移到小点上方,可查看气象台名称。

然后点击查看天气观测和预报。

如需切换地图:点击带黑十字的绿色按钮放大地图;点击带横线的绿色按钮缩小地图;或者点击绿色箭头查看邻近地区的地图。


METAR-TAF: